createdAt,value
2019-05-16T00:00:19.216Z,9.23
2019-05-16T00:02:49.620Z,9.21
2019-05-16T00:05:20.617Z,9.22
2019-05-16T00:07:51.712Z,9.20
2019-05-16T00:10:22.506Z,9.17
2019-05-16T00:12:53.272Z,9.16
2019-05-16T00:15:23.995Z,9.19
2019-05-16T00:17:55.220Z,9.16
2019-05-16T00:20:28.128Z,9.13
2019-05-16T00:22:59.179Z,9.16
2019-05-16T00:25:30.081Z,9.11
2019-05-16T00:28:00.887Z,9.19
2019-05-16T00:30:33.212Z,9.17
2019-05-16T00:33:03.962Z,9.08
2019-05-16T00:35:35.238Z,9.14
2019-05-16T00:38:08.694Z,9.10
2019-05-16T00:40:39.592Z,9.12
2019-05-16T00:43:13.529Z,9.09
2019-05-16T00:45:44.261Z,9.10
2019-05-16T00:48:15.017Z,9.10
2019-05-16T00:50:48.093Z,9.20
2019-05-16T00:53:18.701Z,9.16
2019-05-16T00:55:49.517Z,9.18
2019-05-16T00:58:21.028Z,9.24
2019-05-16T01:00:51.788Z,9.25
2019-05-16T01:03:22.508Z,9.26
2019-05-16T01:05:53.253Z,9.27
2019-05-16T01:08:24.137Z,9.18
2019-05-16T01:10:54.896Z,9.20
2019-05-16T01:13:27.726Z,9.20
2019-05-16T01:15:58.160Z,9.25
2019-05-16T01:18:29.509Z,9.24
2019-05-16T01:21:00.534Z,9.25
2019-05-16T01:23:31.592Z,9.27
2019-05-16T01:26:02.716Z,9.23
2019-05-16T01:28:34.143Z,9.23
2019-05-16T01:31:04.949Z,9.27
2019-05-16T01:33:35.754Z,9.32
2019-05-16T01:36:08.805Z,9.30
2019-05-16T01:38:39.544Z,9.26
2019-05-16T01:41:10.604Z,9.30
2019-05-16T01:43:41.664Z,9.27
2019-05-16T01:46:12.694Z,9.25
2019-05-16T01:48:43.442Z,9.28
2019-05-16T01:51:14.166Z,9.23
2019-05-16T01:53:44.915Z,9.18
2019-05-16T01:56:17.809Z,9.17
2019-05-16T01:58:48.988Z,9.19
2019-05-16T02:01:20.047Z,9.26
2019-05-16T02:03:50.795Z,9.22
2019-05-16T02:06:21.511Z,9.22
2019-05-16T02:08:52.799Z,9.14
2019-05-16T02:11:23.537Z,9.11
2019-05-16T02:13:54.271Z,9.15
2019-05-16T02:16:25.237Z,9.20
2019-05-16T02:18:56.091Z,9.32
2019-05-16T02:21:28.702Z,9.33
2019-05-16T02:24:02.030Z,9.30
2019-05-16T02:26:32.460Z,9.29
2019-05-16T02:29:04.152Z,9.27
2019-05-16T02:31:34.909Z,9.25
2019-05-16T02:34:05.677Z,9.24
2019-05-16T02:36:36.451Z,9.19
2019-05-16T02:39:10.933Z,9.16
2019-05-16T02:41:45.602Z,9.29
2019-05-16T02:44:13.268Z,9.28
2019-05-16T02:46:44.061Z,9.28
2019-05-16T02:49:15.185Z,9.25
2019-05-16T02:51:45.979Z,9.24
2019-05-16T02:54:21.481Z,9.24
2019-05-16T02:56:50.823Z,9.23
2019-05-16T02:59:21.779Z,9.22
2019-05-16T03:01:52.836Z,9.23
2019-05-16T03:04:23.794Z,9.22
2019-05-16T03:06:55.817Z,9.10
2019-05-16T03:09:30.314Z,9.10
2019-05-16T03:12:01.495Z,9.06
2019-05-16T03:14:32.758Z,9.00
2019-05-16T03:17:05.150Z,8.98
2019-05-16T03:19:37.371Z,8.95
2019-05-16T03:22:08.115Z,8.90
2019-05-16T03:24:42.109Z,8.87
2019-05-16T03:27:11.767Z,8.80
2019-05-16T03:29:43.555Z,8.79
2019-05-16T03:32:14.749Z,8.80
2019-05-16T03:34:45.705Z,8.82
2019-05-16T03:37:16.864Z,8.78
2019-05-16T03:39:51.259Z,8.78
2019-05-16T03:42:20.733Z,8.75
2019-05-16T03:44:51.672Z,8.71
2019-05-16T03:47:22.624Z,8.72
2019-05-16T03:49:53.579Z,8.70
2019-05-16T03:52:24.546Z,8.73
2019-05-16T03:54:55.736Z,8.78
2019-05-16T03:57:26.547Z,8.73
2019-05-16T03:59:57.309Z,8.70
2019-05-16T04:02:30.933Z,8.76
2019-05-16T04:05:02.008Z,8.76
2019-05-16T04:07:33.161Z,8.78
2019-05-16T04:10:04.544Z,8.79
2019-05-16T04:12:35.293Z,8.82
2019-05-16T04:15:07.217Z,8.85
2019-05-16T04:17:41.252Z,8.83
2019-05-16T04:20:12.386Z,8.92
2019-05-16T04:22:43.717Z,8.96
2019-05-16T04:25:14.759Z,8.98
2019-05-16T04:27:45.795Z,9.01
2019-05-16T04:30:16.582Z,9.06
2019-05-16T04:32:47.326Z,9.01
2019-05-16T04:35:21.108Z,9.03
2019-05-16T04:37:51.530Z,9.05
2019-05-16T04:40:22.197Z,9.14
2019-05-16T04:42:53.303Z,9.10
2019-05-16T04:45:24.059Z,9.17
2019-05-16T04:47:55.150Z,9.11
2019-05-16T04:50:26.499Z,9.13
2019-05-16T04:52:57.309Z,9.22
2019-05-16T04:55:31.371Z,9.26
2019-05-16T04:58:01.427Z,9.35
2019-05-16T05:00:32.316Z,9.37
2019-05-16T05:03:03.052Z,9.36
2019-05-16T05:05:34.012Z,9.88
2019-05-16T05:08:04.919Z,10.18
2019-05-16T05:10:35.956Z,10.17
2019-05-16T05:13:07.310Z,10.64
2019-05-16T05:15:40.127Z,10.55
2019-05-16T05:18:11.243Z,10.73
2019-05-16T05:20:42.351Z,10.95
2019-05-16T05:23:13.819Z,10.75
2019-05-16T05:25:44.633Z,10.64
2019-05-16T05:28:15.399Z,10.59
2019-05-16T05:30:46.596Z,10.99
2019-05-16T05:33:17.416Z,11.35
2019-05-16T05:35:50.687Z,11.08
2019-05-16T05:38:21.684Z,11.02
2019-05-16T05:40:53.486Z,10.93
2019-05-16T05:43:24.262Z,10.81
2019-05-16T05:45:55.056Z,10.76
2019-05-16T05:48:26.056Z,10.88
2019-05-16T05:50:56.788Z,10.80
2019-05-16T05:53:30.097Z,10.95
2019-05-16T05:56:00.847Z,11.07
2019-05-16T05:58:31.775Z,11.17
2019-05-16T06:01:02.530Z,11.21
2019-05-16T06:03:33.546Z,11.38
2019-05-16T06:06:04.366Z,11.21
2019-05-16T06:08:35.762Z,11.27
2019-05-16T06:11:06.878Z,11.40
2019-05-16T06:13:40.272Z,11.47
2019-05-16T06:16:10.843Z,11.49
2019-05-16T06:18:42.353Z,11.69
2019-05-16T06:21:13.260Z,11.61
2019-05-16T06:23:44.279Z,11.55
2019-05-16T06:26:15.744Z,11.48
2019-05-16T06:28:50.252Z,11.61
2019-05-16T06:31:22.102Z,11.67
2019-05-16T06:33:53.043Z,11.83
2019-05-16T06:36:23.772Z,11.95
2019-05-16T06:38:54.777Z,11.94
2019-05-16T06:41:25.612Z,11.94
2019-05-16T06:43:56.440Z,12.09
2019-05-16T06:46:27.189Z,11.92
2019-05-16T06:48:59.650Z,12.06
2019-05-16T06:51:30.659Z,11.95
2019-05-16T06:54:01.660Z,11.76
2019-05-16T06:56:33.388Z,11.84
2019-05-16T06:59:04.203Z,11.92
2019-05-16T07:01:35.176Z,12.13
2019-05-16T07:04:06.153Z,12.19
2019-05-16T07:06:51.699Z,12.41
2019-05-16T07:09:10.521Z,12.30
2019-05-16T07:11:41.568Z,12.39
2019-05-16T07:14:12.585Z,12.55
2019-05-16T07:16:43.488Z,12.99
2019-05-16T07:19:14.514Z,13.10
2019-05-16T07:21:45.565Z,12.99
2019-05-16T07:24:17.045Z,12.91
2019-05-16T07:26:50.138Z,13.09
2019-05-16T07:29:20.601Z,13.25
2019-05-16T07:31:52.392Z,13.26
2019-05-16T07:34:23.241Z,13.28
2019-05-16T07:36:53.979Z,13.40
2019-05-16T07:39:25.057Z,13.52
2019-05-16T07:41:56.335Z,13.44
2019-05-16T07:44:30.749Z,13.64
2019-05-16T07:47:01.150Z,13.64
2019-05-16T07:49:32.313Z,13.30
2019-05-16T07:52:03.170Z,13.67
2019-05-16T07:54:34.558Z,13.67
2019-05-16T07:57:16.214Z,13.63
2019-05-16T07:59:37.879Z,13.63
2019-05-16T08:02:10.973Z,13.47
2019-05-16T08:04:41.595Z,13.27
2019-05-16T08:07:12.721Z,13.63
2019-05-16T08:09:43.588Z,13.81
2019-05-16T08:12:14.428Z,13.74
2019-05-16T08:14:45.579Z,13.75
2019-05-16T08:17:16.305Z,13.95
2019-05-16T08:19:47.287Z,13.87
2019-05-16T08:22:18.274Z,13.60
2019-05-16T08:24:50.538Z,13.49
2019-05-16T08:27:21.848Z,13.87
2019-05-16T08:29:52.972Z,13.73
2019-05-16T08:32:23.711Z,13.81
2019-05-16T08:34:54.508Z,13.89
2019-05-16T08:40:00.355Z,13.76
2019-05-16T08:45:04.318Z,13.65
2019-05-16T08:47:35.315Z,14.20
2019-05-16T08:50:11.588Z,13.83
2019-05-16T08:50:13.738Z,14.64
2019-05-16T08:52:43.532Z,14.66
2019-05-16T08:55:13.913Z,15.07
2019-05-16T08:57:44.777Z,14.78
2019-05-16T09:00:15.817Z,14.56
2019-05-16T09:02:46.892Z,14.50
2019-05-16T09:05:22.302Z,15.04
2019-05-16T09:07:50.971Z,14.92
2019-05-16T09:10:35.823Z,13.76
2019-05-16T09:12:54.225Z,14.90
2019-05-16T09:15:27.324Z,14.86
2019-05-16T09:17:58.282Z,14.84
2019-05-16T09:20:29.259Z,14.70
2019-05-16T09:23:00.336Z,14.70
2019-05-16T09:25:31.347Z,14.91
2019-05-16T09:28:02.075Z,15.22
2019-05-16T09:30:32.885Z,15.18
2019-05-16T09:33:03.688Z,15.51
2019-05-16T09:35:37.012Z,15.64
2019-05-16T09:38:07.494Z,16.02
2019-05-16T09:40:38.942Z,16.12
2019-05-16T09:43:09.961Z,16.20
2019-05-16T09:45:41.001Z,16.14
2019-05-16T09:48:11.810Z,15.85
2019-05-16T09:50:42.712Z,15.65
2019-05-16T09:53:13.811Z,15.45
2019-05-16T09:55:46.778Z,15.40
2019-05-16T09:58:18.338Z,15.71
2019-05-16T10:00:49.696Z,15.98
2019-05-16T10:03:22.611Z,16.60
2019-05-16T10:05:53.354Z,16.12
2019-05-16T10:08:26.563Z,16.04
2019-05-16T10:10:57.522Z,16.29
2019-05-16T10:13:29.574Z,16.51
2019-05-16T10:16:00.593Z,16.37
2019-05-16T10:18:31.686Z,16.48
2019-05-16T10:21:02.437Z,16.52
2019-05-16T10:23:33.640Z,16.81
2019-05-16T10:26:04.389Z,17.06
2019-05-16T10:28:38.463Z,16.95
2019-05-16T10:31:08.229Z,17.12
2019-05-16T10:33:39.295Z,17.48
2019-05-16T10:36:10.415Z,17.53
2019-05-16T10:38:41.211Z,17.40
2019-05-16T10:41:12.548Z,17.98
2019-05-16T10:43:43.273Z,17.42
2019-05-16T10:46:14.173Z,17.65
2019-05-16T10:48:46.896Z,17.70
2019-05-16T10:51:17.673Z,17.20
2019-05-16T10:54:10.512Z,16.84
2019-05-16T10:56:21.070Z,17.41
2019-05-16T10:59:34.948Z,17.28
2019-05-16T11:01:28.741Z,17.56
2019-05-16T11:03:58.405Z,17.66
2019-05-16T11:06:29.655Z,17.77
2019-05-16T11:09:00.375Z,18.07
2019-05-16T11:11:31.245Z,17.87
2019-05-16T11:14:02.119Z,17.48
2019-05-16T11:16:32.873Z,17.31
2019-05-16T11:19:14.156Z,17.04
2019-05-16T11:21:37.699Z,17.82
2019-05-16T11:24:12.276Z,17.84
2019-05-16T11:26:41.230Z,18.04
2019-05-16T11:29:12.034Z,18.23
2019-05-16T11:31:42.854Z,18.58
2019-05-16T11:34:14.325Z,18.83
2019-05-16T11:36:47.762Z,19.03
2019-05-16T11:39:19.241Z,19.67
2019-05-16T11:41:50.000Z,19.28
2019-05-16T11:44:21.297Z,19.11
2019-05-16T11:46:52.109Z,19.28
2019-05-16T11:49:22.972Z,19.37
2019-05-16T11:51:53.945Z,19.99
2019-05-16T11:54:26.630Z,19.78
2019-05-16T11:56:57.482Z,18.94
2019-05-16T11:59:28.356Z,18.98
2019-05-16T12:01:59.415Z,18.45
2019-05-16T12:04:30.135Z,18.10
2019-05-16T12:07:00.952Z,18.36
2019-05-16T12:09:34.189Z,18.63
2019-05-16T12:12:04.736Z,18.61
2019-05-16T12:14:36.747Z,18.83
2019-05-16T12:17:07.620Z,18.79
2019-05-16T12:19:43.944Z,19.03
2019-05-16T12:22:11.022Z,19.22
2019-05-16T12:24:41.996Z,19.14
2019-05-16T12:27:12.981Z,19.40
2019-05-16T12:29:43.782Z,19.96
2019-05-16T12:32:17.067Z,20.03
2019-05-16T12:34:47.875Z,19.86
2019-05-16T12:37:18.976Z,19.93
2019-05-16T12:39:49.759Z,19.87
2019-05-16T12:42:20.686Z,20.16
2019-05-16T12:44:51.877Z,20.12
2019-05-16T12:47:22.701Z,20.28
2019-05-16T12:49:53.865Z,20.50
2019-05-16T12:52:27.103Z,19.82
2019-05-16T12:54:57.682Z,19.32
2019-05-16T12:57:31.073Z,19.01
2019-05-16T13:00:01.157Z,19.18
2019-05-16T13:02:33.437Z,19.73
2019-05-16T13:05:04.453Z,20.55
2019-05-16T13:07:37.733Z,20.85
2019-05-16T13:10:09.649Z,20.99
2019-05-16T13:12:41.925Z,20.94
2019-05-16T13:15:13.145Z,21.30
2019-05-16T13:17:43.873Z,20.16
2019-05-16T13:20:17.334Z,20.43
2019-05-16T13:22:48.364Z,20.63
2019-05-16T13:25:19.766Z,20.36
2019-05-16T13:27:50.504Z,20.81
2019-05-16T13:30:21.543Z,20.75
2019-05-16T13:32:53.179Z,21.28
2019-05-16T13:35:23.926Z,21.14
2019-05-16T13:37:54.666Z,20.57
2019-05-16T13:40:27.645Z,19.85
2019-05-16T13:42:57.978Z,19.60
2019-05-16T13:45:29.288Z,20.28
2019-05-16T13:48:00.684Z,20.29
2019-05-16T13:50:31.476Z,20.25
2019-05-16T13:53:03.079Z,20.77
2019-05-16T13:55:33.923Z,21.13
2019-05-16T13:58:04.754Z,21.41
2019-05-16T14:00:37.876Z,20.86
2019-05-16T14:03:08.677Z,20.53
2019-05-16T14:05:39.732Z,20.43
2019-05-16T14:08:10.958Z,20.91
2019-05-16T14:10:41.723Z,21.47
2019-05-16T14:13:12.831Z,21.19
2019-05-16T14:15:43.706Z,20.98
2019-05-16T14:18:17.481Z,21.35
2019-05-16T14:20:47.274Z,20.44
2019-05-16T14:23:18.357Z,20.28
2019-05-16T14:25:49.088Z,19.88
2019-05-16T14:28:19.845Z,20.07
2019-05-16T14:30:50.665Z,19.96
2019-05-16T14:33:21.396Z,19.67
2019-05-16T14:35:52.550Z,19.17
2019-05-16T14:38:23.350Z,19.11
2019-05-16T14:40:54.336Z,18.98
2019-05-16T14:43:27.213Z,19.53
2019-05-16T14:45:57.860Z,19.14
2019-05-16T14:48:28.811Z,19.38
2019-05-16T14:51:00.527Z,18.87
2019-05-16T14:53:31.296Z,18.88
2019-05-16T14:56:02.321Z,18.61
2019-05-16T14:58:33.094Z,18.60
2019-05-16T15:01:04.037Z,18.24
2019-05-16T15:03:36.603Z,18.31
2019-05-16T15:06:08.421Z,18.54
2019-05-16T15:08:40.069Z,18.10
2019-05-16T15:11:14.356Z,18.13
2019-05-16T15:13:43.588Z,17.86
2019-05-16T15:16:16.751Z,17.91
2019-05-16T15:18:47.718Z,17.80
2019-05-16T15:21:18.558Z,17.90
2019-05-16T15:23:49.596Z,17.87
2019-05-16T15:26:20.951Z,17.82
2019-05-16T15:28:52.259Z,17.91
2019-05-16T15:31:22.996Z,18.10
2019-05-16T15:33:57.118Z,18.27
2019-05-16T15:36:27.213Z,17.98
2019-05-16T15:38:59.532Z,17.91
2019-05-16T15:41:30.696Z,17.40
2019-05-16T15:44:01.423Z,17.34
2019-05-16T15:46:32.233Z,17.72
2019-05-16T15:49:03.306Z,17.57
2019-05-16T15:51:36.892Z,17.31
2019-05-16T15:54:07.450Z,17.55
2019-05-16T15:56:40.536Z,17.39
2019-05-16T15:59:12.133Z,17.18
2019-05-16T16:01:43.358Z,16.93
2019-05-16T16:04:14.425Z,16.55
2019-05-16T16:06:47.430Z,16.39
2019-05-16T16:09:18.589Z,16.29
2019-05-16T16:11:49.971Z,16.09
2019-05-16T16:14:21.011Z,16.09
2019-05-16T16:16:52.253Z,16.09
2019-05-16T16:19:23.477Z,15.83
2019-05-16T16:21:54.283Z,15.78
2019-05-16T16:24:27.907Z,15.72
2019-05-16T16:26:58.081Z,15.51
2019-05-16T16:29:29.293Z,15.41
2019-05-16T16:32:00.090Z,15.27
2019-05-16T16:34:31.390Z,15.14
2019-05-16T16:37:02.155Z,15.12
2019-05-16T16:39:33.128Z,15.12
2019-05-16T16:42:03.963Z,14.96
2019-05-16T16:44:36.499Z,14.98
2019-05-16T16:47:07.402Z,14.85
2019-05-16T16:49:40.581Z,14.95
2019-05-16T16:52:11.502Z,14.83
2019-05-16T16:54:42.260Z,14.68
2019-05-16T16:57:13.084Z,14.48
2019-05-16T16:59:44.074Z,14.48
2019-05-16T17:02:17.127Z,14.34
2019-05-16T17:04:51.257Z,14.39
2019-05-16T17:07:20.092Z,14.23
2019-05-16T17:09:51.217Z,14.23
2019-05-16T17:12:23.315Z,14.28
2019-05-16T17:14:54.308Z,14.16
2019-05-16T17:17:26.550Z,14.11
2019-05-16T17:19:57.461Z,13.92
2019-05-16T17:22:28.860Z,13.83
2019-05-16T17:24:59.721Z,13.71
2019-05-16T17:27:30.866Z,13.75
2019-05-16T17:30:02.154Z,13.77
2019-05-16T17:32:34.389Z,13.69
2019-05-16T17:35:06.800Z,13.66
2019-05-16T17:37:37.683Z,13.70
2019-05-16T17:40:08.579Z,13.51
2019-05-16T17:42:39.606Z,13.58
2019-05-16T17:45:11.464Z,13.52
2019-05-16T17:47:42.693Z,13.43
2019-05-16T17:50:17.320Z,13.49
2019-05-16T17:52:48.672Z,13.50
2019-05-16T17:55:19.796Z,13.42
2019-05-16T17:57:50.632Z,13.31
2019-05-16T18:00:25.603Z,13.26
2019-05-16T18:02:56.907Z,13.22
2019-05-16T18:05:27.269Z,13.22
2019-05-16T18:07:58.394Z,13.15
2019-05-16T18:10:29.245Z,13.06
2019-05-16T18:13:00.139Z,13.00
2019-05-16T18:15:31.189Z,12.97
2019-05-16T18:18:02.256Z,13.01
2019-05-16T18:20:33.078Z,12.95
2019-05-16T18:23:03.828Z,12.91
2019-05-16T18:25:36.516Z,12.91
2019-05-16T18:28:08.480Z,12.84
2019-05-16T18:30:39.228Z,12.84
2019-05-16T18:33:10.026Z,12.75
2019-05-16T18:35:40.860Z,12.78
2019-05-16T18:38:12.108Z,12.61
2019-05-16T18:40:42.851Z,12.69
2019-05-16T18:43:13.954Z,12.62
2019-05-16T18:45:47.079Z,12.56
2019-05-16T18:48:17.823Z,12.53
2019-05-16T18:50:48.623Z,12.51
2019-05-16T18:53:20.059Z,12.47
2019-05-16T18:55:50.800Z,12.33
2019-05-16T18:58:21.888Z,12.36
2019-05-16T19:00:52.683Z,12.36
2019-05-16T19:03:23.804Z,12.37
2019-05-16T19:05:56.928Z,12.36
2019-05-16T19:08:27.254Z,12.31
2019-05-16T19:10:59.953Z,12.28
2019-05-16T19:13:32.299Z,12.29
2019-05-16T19:16:03.446Z,12.26
2019-05-16T19:18:36.679Z,12.24
2019-05-16T19:21:07.501Z,12.28
2019-05-16T19:23:38.489Z,12.23
2019-05-16T19:26:09.695Z,12.18
2019-05-16T19:28:40.515Z,12.11
2019-05-16T19:31:11.671Z,12.12
2019-05-16T19:33:43.470Z,12.11
2019-05-16T19:36:16.467Z,12.10
2019-05-16T19:38:47.162Z,12.13
2019-05-16T19:41:18.509Z,12.10
2019-05-16T19:43:49.575Z,12.10
2019-05-16T19:46:23.392Z,12.05
2019-05-16T19:48:53.385Z,12.02
2019-05-16T19:51:26.787Z,11.99
2019-05-16T19:53:57.245Z,11.97
2019-05-16T19:56:27.993Z,11.94
2019-05-16T19:58:58.818Z,11.99
2019-05-16T20:01:32.206Z,11.98
2019-05-16T20:04:02.945Z,11.91
2019-05-16T20:06:36.786Z,11.88
2019-05-16T20:09:07.990Z,11.89
2019-05-16T20:11:38.810Z,11.88
2019-05-16T20:14:09.811Z,11.87
2019-05-16T20:16:40.787Z,11.80
2019-05-16T20:19:11.675Z,11.82
2019-05-16T20:21:42.773Z,11.82
2019-05-16T20:24:13.726Z,11.87
2019-05-16T20:26:46.423Z,11.90
2019-05-16T20:29:17.544Z,11.84
2019-05-16T20:31:48.685Z,11.84
2019-05-16T20:34:20.523Z,11.79
2019-05-16T20:36:51.352Z,11.73
2019-05-16T20:39:22.739Z,11.75
2019-05-16T20:41:59.389Z,11.73
2019-05-16T20:44:26.939Z,11.73
2019-05-16T20:46:57.910Z,11.71
2019-05-16T20:49:28.918Z,11.74
2019-05-16T20:51:59.645Z,11.82
2019-05-16T20:54:30.828Z,11.79
2019-05-16T20:57:01.712Z,11.74
2019-05-16T20:59:32.816Z,11.71
2019-05-16T21:02:03.942Z,11.70
2019-05-16T21:04:37.261Z,11.71
2019-05-16T21:07:11.053Z,11.72
2019-05-16T21:09:40.599Z,11.63
2019-05-16T21:12:11.647Z,11.55
2019-05-16T21:14:42.887Z,11.56
2019-05-16T21:17:13.616Z,11.56
2019-05-16T21:19:44.457Z,11.48
2019-05-16T21:22:16.238Z,11.48
2019-05-16T21:24:47.963Z,11.55
2019-05-16T21:27:19.261Z,11.49
2019-05-16T21:29:51.444Z,11.42
2019-05-16T21:32:22.699Z,11.41
2019-05-16T21:34:53.687Z,11.38
2019-05-16T21:37:26.913Z,11.36
2019-05-16T21:39:59.723Z,11.34
2019-05-16T21:42:31.385Z,11.28
2019-05-16T21:45:02.788Z,11.26
2019-05-16T21:47:33.531Z,11.25
2019-05-16T21:50:07.254Z,11.22
2019-05-16T21:52:37.958Z,11.17
2019-05-16T21:55:09.357Z,11.18
2019-05-16T21:57:40.232Z,11.20
2019-05-16T22:00:18.940Z,11.16
2019-05-16T22:02:51.992Z,11.17
2019-05-16T22:05:23.416Z,11.18
2019-05-16T22:07:56.601Z,11.24
2019-05-16T22:10:27.158Z,11.27
2019-05-16T22:12:59.572Z,11.25
2019-05-16T22:15:30.472Z,11.24
2019-05-16T22:18:01.277Z,11.22
2019-05-16T22:20:32.172Z,11.27
2019-05-16T22:23:03.460Z,11.16
2019-05-16T22:25:34.300Z,11.20
2019-05-16T22:28:07.160Z,11.17
2019-05-16T22:30:38.571Z,11.28
2019-05-16T22:33:09.622Z,11.27
2019-05-16T22:35:40.692Z,11.30
2019-05-16T22:38:11.421Z,11.33
2019-05-16T22:40:42.585Z,11.21
2019-05-16T22:43:13.466Z,11.26
2019-05-16T22:45:46.662Z,11.31
2019-05-16T22:48:17.379Z,11.25
2019-05-16T22:50:49.110Z,11.23
2019-05-16T22:53:19.860Z,11.22
2019-05-16T22:55:50.891Z,11.18
2019-05-16T22:58:21.867Z,11.12
2019-05-16T23:00:52.599Z,11.07
2019-05-16T23:03:23.589Z,11.20
2019-05-16T23:05:56.527Z,11.15
2019-05-16T23:08:27.851Z,11.15
2019-05-16T23:10:58.588Z,11.13
2019-05-16T23:13:29.880Z,11.09
2019-05-16T23:16:00.637Z,11.13
2019-05-16T23:18:31.504Z,11.14
2019-05-16T23:21:02.552Z,11.06
2019-05-16T23:23:33.764Z,11.13
2019-05-16T23:26:06.372Z,11.10
2019-05-16T23:28:37.602Z,11.12
2019-05-16T23:31:08.916Z,11.09
2019-05-16T23:33:39.657Z,11.14
2019-05-16T23:36:11.168Z,11.09
2019-05-16T23:38:41.932Z,11.10
2019-05-16T23:41:13.177Z,11.08
2019-05-16T23:43:44.178Z,11.07
2019-05-16T23:46:16.514Z,11.10
2019-05-16T23:48:47.386Z,11.19
2019-05-16T23:51:18.297Z,11.18
2019-05-16T23:53:49.033Z,11.15
2019-05-16T23:56:20.033Z,11.03
2019-05-16T23:58:51.041Z,11.01
